createdAt,value
2018-06-14T00:00:48.244Z,11.10
2018-06-14T00:03:16.652Z,11.10
2018-06-14T00:05:45.253Z,11.00
2018-06-14T00:08:13.714Z,11.00
2018-06-14T00:13:10.228Z,10.90
2018-06-14T00:15:38.649Z,10.90
2018-06-14T00:18:07.081Z,10.90
2018-06-14T00:20:35.493Z,10.90
2018-06-14T00:23:03.920Z,10.90
2018-06-14T00:25:32.351Z,10.80
2018-06-14T00:28:00.818Z,10.80
2018-06-14T00:30:29.209Z,10.70
2018-06-14T00:35:25.983Z,10.70
2018-06-14T00:37:54.418Z,10.60
2018-06-14T00:40:22.881Z,10.60
2018-06-14T00:42:51.312Z,10.60
2018-06-14T00:45:19.768Z,10.60
2018-06-14T00:47:48.213Z,10.50
2018-06-14T00:50:16.710Z,10.50
2018-06-14T00:52:45.113Z,10.50
2018-06-14T00:55:13.552Z,10.50
2018-06-14T00:57:42.036Z,10.40
2018-06-14T01:00:10.120Z,10.40
2018-06-14T01:02:38.537Z,10.40
2018-06-14T01:05:07.118Z,10.40
2018-06-14T01:07:35.572Z,10.40
2018-06-14T01:10:04.073Z,10.30
2018-06-14T01:15:00.607Z,10.30
2018-06-14T01:17:29.011Z,10.40
2018-06-14T01:19:57.504Z,10.30
2018-06-14T01:22:25.930Z,10.30
2018-06-14T01:24:54.464Z,10.20
2018-06-14T01:27:22.880Z,10.20
2018-06-14T01:29:51.333Z,10.20
2018-06-14T01:32:19.739Z,10.20
2018-06-14T01:34:48.132Z,10.20
2018-06-14T01:37:22.368Z,10.20
2018-06-14T01:39:50.801Z,10.10
2018-06-14T01:42:19.208Z,10.10
2018-06-14T01:44:47.636Z,10.10
2018-06-14T01:47:16.680Z,10.10
2018-06-14T01:49:45.118Z,10.10
2018-06-14T01:52:13.605Z,10.10
2018-06-14T01:54:42.009Z,10.20
2018-06-14T01:57:10.472Z,10.20
2018-06-14T01:59:38.876Z,10.30
2018-06-14T02:02:07.326Z,10.30
2018-06-14T02:04:35.797Z,10.30
2018-06-14T02:07:04.318Z,10.20
2018-06-14T02:09:32.739Z,10.20
2018-06-14T02:12:01.154Z,10.20
2018-06-14T02:16:57.921Z,10.20
2018-06-14T02:19:26.436Z,10.20
2018-06-14T02:21:54.885Z,10.10
2018-06-14T02:24:23.306Z,10.10
2018-06-14T02:26:51.709Z,10.10
2018-06-14T02:29:20.106Z,10.10
2018-06-14T02:31:48.490Z,10.10
2018-06-14T02:34:16.929Z,10.10
2018-06-14T02:36:45.420Z,10.10
2018-06-14T02:39:13.865Z,10.10
2018-06-14T02:41:42.294Z,10.10
2018-06-14T02:44:10.752Z,10.10
2018-06-14T02:46:39.181Z,10.10
2018-06-14T02:49:07.609Z,10.20
2018-06-14T02:51:36.069Z,10.20
2018-06-14T02:54:04.549Z,10.20
2018-06-14T02:56:32.977Z,10.20
2018-06-14T02:59:01.391Z,10.20
2018-06-14T03:01:30.054Z,10.20
2018-06-14T03:03:58.518Z,10.20
2018-06-14T03:06:26.969Z,10.30
2018-06-14T03:08:56.333Z,10.30
2018-06-14T03:11:24.760Z,10.30
2018-06-14T03:13:53.158Z,10.40
2018-06-14T03:16:21.604Z,10.40
2018-06-14T03:18:49.994Z,10.40
2018-06-14T03:21:18.436Z,10.40
2018-06-14T03:23:46.936Z,10.40
2018-06-14T03:26:15.721Z,10.40
2018-06-14T03:28:44.175Z,10.50
2018-06-14T03:31:12.584Z,10.50
2018-06-14T03:33:41.056Z,10.50
2018-06-14T03:36:09.490Z,10.60
2018-06-14T03:38:38.780Z,10.60
2018-06-14T03:41:07.262Z,10.60
2018-06-14T03:43:35.934Z,10.70
2018-06-14T03:48:33.606Z,10.80
2018-06-14T03:51:02.068Z,10.80
2018-06-14T03:53:30.561Z,10.90
2018-06-14T03:55:58.978Z,11.00
2018-06-14T03:58:27.428Z,11.00
2018-06-14T04:00:55.812Z,11.30
2018-06-14T04:03:24.245Z,11.60
2018-06-14T04:05:52.720Z,12.10
2018-06-14T04:08:21.135Z,12.70
2018-06-14T04:10:49.595Z,13.20
2018-06-14T04:13:18.020Z,13.70
2018-06-14T04:15:46.443Z,14.20
2018-06-14T04:18:14.830Z,14.70
2018-06-14T04:20:43.259Z,15.00
2018-06-14T04:23:11.708Z,15.20
2018-06-14T04:25:40.128Z,15.40
2018-06-14T04:28:08.605Z,15.50
2018-06-14T04:30:37.052Z,15.60
2018-06-14T04:33:05.525Z,15.70
2018-06-14T04:35:33.950Z,16.00
2018-06-14T04:38:02.531Z,16.40
2018-06-14T04:40:30.913Z,16.90
2018-06-14T04:42:59.884Z,17.30
2018-06-14T04:45:28.309Z,17.70
2018-06-14T04:47:56.887Z,18.10
2018-06-14T04:50:25.313Z,18.30
2018-06-14T04:52:53.764Z,18.20
2018-06-14T04:55:22.179Z,18.20
2018-06-14T04:57:50.585Z,18.30
2018-06-14T05:00:19.019Z,18.40
2018-06-14T05:02:47.416Z,18.50
2018-06-14T05:05:15.909Z,18.60
2018-06-14T05:07:44.365Z,18.70
2018-06-14T05:10:13.204Z,19.00
2018-06-14T05:12:42.343Z,19.30
2018-06-14T05:15:10.757Z,19.40
2018-06-14T05:17:39.230Z,19.70
2018-06-14T05:20:07.663Z,20.20
2018-06-14T05:22:36.111Z,20.50
2018-06-14T05:25:04.784Z,20.80
2018-06-14T05:27:33.174Z,21.00
2018-06-14T05:30:01.622Z,20.90
2018-06-14T05:32:30.924Z,21.00
2018-06-14T05:34:59.373Z,21.10
2018-06-14T05:39:56.056Z,21.80
2018-06-14T05:42:24.581Z,22.00
2018-06-14T05:44:52.975Z,22.40
2018-06-14T05:47:21.542Z,22.40
2018-06-14T05:49:49.914Z,22.70
2018-06-14T05:52:18.336Z,23.10
2018-06-14T05:54:46.869Z,23.50
2018-06-14T05:57:15.297Z,23.90
2018-06-14T05:59:43.710Z,24.00
2018-06-14T06:02:12.183Z,24.00
2018-06-14T06:04:40.666Z,24.20
2018-06-14T06:07:09.082Z,24.50
2018-06-14T06:09:37.501Z,24.90
2018-06-14T06:12:05.945Z,25.00
2018-06-14T06:14:34.376Z,24.90
2018-06-14T06:17:03.103Z,24.80
2018-06-14T06:19:31.549Z,25.00
2018-06-14T06:22:00.619Z,25.00
2018-06-14T06:24:29.213Z,25.30
2018-06-14T06:26:57.620Z,25.20
2018-06-14T06:29:26.315Z,25.40
2018-06-14T06:31:54.745Z,25.50
2018-06-14T06:34:23.137Z,25.40
2018-06-14T06:36:51.629Z,25.50
2018-06-14T06:39:19.993Z,25.80
2018-06-14T06:41:48.577Z,26.20
2018-06-14T06:44:17.721Z,26.60
2018-06-14T06:46:46.396Z,26.80
2018-06-14T06:49:14.949Z,26.80
2018-06-14T06:51:44.312Z,26.90
2018-06-14T06:54:12.741Z,26.90
2018-06-14T06:56:41.290Z,26.60
2018-06-14T06:59:09.770Z,26.90
2018-06-14T07:01:38.173Z,27.10
2018-06-14T07:04:06.591Z,27.20
2018-06-14T07:06:35.039Z,27.70
2018-06-14T07:09:03.735Z,28.10
2018-06-14T07:11:32.361Z,28.20
2018-06-14T07:14:00.725Z,28.50
2018-06-14T07:16:29.125Z,28.40
2018-06-14T07:18:57.864Z,28.40
2018-06-14T07:21:26.292Z,28.70
2018-06-14T07:23:54.779Z,28.80
2018-06-14T07:26:23.444Z,28.70
2018-06-14T07:28:51.984Z,29.00
2018-06-14T07:31:20.393Z,29.10
2018-06-14T07:33:48.869Z,29.10
2018-06-14T07:36:17.319Z,29.10
2018-06-14T07:38:45.737Z,28.50
2018-06-14T07:41:14.138Z,28.90
2018-06-14T07:43:42.560Z,29.20
2018-06-14T07:46:11.029Z,29.10
2018-06-14T07:48:39.581Z,28.90
2018-06-14T07:51:08.490Z,28.50
2018-06-14T07:53:37.128Z,28.40
2018-06-14T07:56:05.917Z,28.00
2018-06-14T07:58:34.366Z,28.00
2018-06-14T08:01:02.781Z,28.00
2018-06-14T08:03:31.225Z,28.30
2018-06-14T08:05:59.638Z,28.60
2018-06-14T08:08:28.029Z,29.00
2018-06-14T08:10:56.502Z,29.80
2018-06-14T08:13:24.956Z,29.80
2018-06-14T08:15:53.690Z,29.60
2018-06-14T08:18:22.149Z,29.40
2018-06-14T08:20:50.550Z,29.40
2018-06-14T08:23:18.983Z,30.20
2018-06-14T08:25:47.414Z,30.50
2018-06-14T08:28:15.873Z,30.40
2018-06-14T08:30:44.278Z,31.30
2018-06-14T08:35:41.133Z,31.20
2018-06-14T08:38:09.566Z,31.20
2018-06-14T08:40:38.012Z,31.20
2018-06-14T08:43:06.439Z,31.40
2018-06-14T08:45:34.859Z,31.30
2018-06-14T08:48:03.315Z,31.50
2018-06-14T08:50:31.746Z,31.40
2018-06-14T08:53:00.202Z,30.80
2018-06-14T08:55:28.677Z,30.40
2018-06-14T08:57:57.102Z,29.80
2018-06-14T09:00:25.565Z,28.60
2018-06-14T09:02:53.968Z,28.10
2018-06-14T09:05:22.682Z,27.90
2018-06-14T09:07:51.161Z,27.60
2018-06-14T09:10:19.653Z,27.40
2018-06-14T09:12:48.305Z,27.00
2018-06-14T09:15:16.752Z,26.90
2018-06-14T09:17:45.393Z,27.00
2018-06-14T09:20:13.841Z,27.30
2018-06-14T09:22:42.302Z,27.70
2018-06-14T09:25:10.756Z,28.20
2018-06-14T09:27:39.137Z,28.80
2018-06-14T09:30:07.558Z,29.70
2018-06-14T09:32:35.969Z,30.60
2018-06-14T09:37:32.779Z,31.80
2018-06-14T09:40:01.184Z,32.50
2018-06-14T09:42:29.637Z,32.70
2018-06-14T09:44:58.124Z,33.00
2018-06-14T09:47:26.537Z,32.70
2018-06-14T09:49:55.474Z,33.00
2018-06-14T09:52:23.875Z,32.60
2018-06-14T09:54:52.309Z,31.70
2018-06-14T09:57:20.732Z,31.30
2018-06-14T09:59:49.202Z,30.70
2018-06-14T10:02:17.584Z,29.90
2018-06-14T10:04:46.045Z,29.60
2018-06-14T10:07:14.474Z,29.60
2018-06-14T10:09:42.897Z,29.20
2018-06-14T10:12:11.373Z,28.60
2018-06-14T10:14:39.801Z,28.30
2018-06-14T10:17:08.342Z,28.70
2018-06-14T10:19:36.760Z,28.30
2018-06-14T10:24:33.486Z,27.40
2018-06-14T10:27:01.909Z,27.30
2018-06-14T10:29:30.321Z,27.20
2018-06-14T10:31:58.736Z,27.00
2018-06-14T10:34:27.138Z,26.90
2018-06-14T10:39:23.760Z,26.80
2018-06-14T10:41:52.207Z,27.60
2018-06-14T10:44:20.613Z,28.30
2018-06-14T10:46:49.079Z,28.30
2018-06-14T10:49:24.233Z,28.30
2018-06-14T10:51:52.661Z,27.80
2018-06-14T10:54:21.189Z,28.20
2018-06-14T10:56:50.156Z,28.80
2018-06-14T10:59:18.604Z,29.10
2018-06-14T11:01:47.048Z,29.70
2018-06-14T11:04:15.513Z,29.90
2018-06-14T11:06:43.969Z,29.90
2018-06-14T11:09:12.693Z,29.20
2018-06-14T11:11:41.560Z,29.30
2018-06-14T11:14:10.174Z,29.40
2018-06-14T11:16:38.624Z,29.20
2018-06-14T11:19:07.016Z,29.00
2018-06-14T11:21:35.784Z,28.70
2018-06-14T11:24:04.278Z,28.70
2018-06-14T11:26:32.737Z,28.60
2018-06-14T11:29:01.224Z,28.40
2018-06-14T11:31:29.612Z,28.70
2018-06-14T11:33:58.141Z,28.70
2018-06-14T11:36:26.567Z,28.60
2018-06-14T11:38:55.030Z,28.40
2018-06-14T11:41:23.752Z,28.60
2018-06-14T11:43:52.292Z,28.80
2018-06-14T11:46:20.707Z,28.60
2018-06-14T11:48:49.386Z,28.40
2018-06-14T11:51:17.840Z,28.60
2018-06-14T11:53:46.245Z,28.60
2018-06-14T11:56:14.688Z,28.70
2018-06-14T11:58:43.093Z,28.90
2018-06-14T12:01:11.685Z,29.10
2018-06-14T12:03:40.056Z,29.30
2018-06-14T12:06:08.482Z,29.20
2018-06-14T12:08:36.921Z,29.20
2018-06-14T12:11:05.351Z,29.10
2018-06-14T12:13:33.864Z,29.20
2018-06-14T12:16:02.281Z,29.10
2018-06-14T12:18:30.730Z,29.10
2018-06-14T12:20:59.142Z,29.10
2018-06-14T12:23:27.928Z,29.30
2018-06-14T12:25:56.338Z,29.40
2018-06-14T12:28:24.740Z,29.60
2018-06-14T12:30:53.200Z,29.60
2018-06-14T12:33:21.646Z,29.60
2018-06-14T12:35:50.084Z,29.50
2018-06-14T12:38:18.498Z,29.10
2018-06-14T12:40:46.977Z,28.60
2018-06-14T12:43:15.390Z,28.40
2018-06-14T12:45:43.842Z,28.40
2018-06-14T12:48:12.326Z,28.50
2018-06-14T12:50:40.825Z,28.70
2018-06-14T12:53:09.297Z,29.00
2018-06-14T12:55:37.736Z,29.00
2018-06-14T12:58:06.222Z,29.00
2018-06-14T13:00:34.700Z,29.00
2018-06-14T13:03:03.239Z,29.00
2018-06-14T13:05:31.965Z,29.00
2018-06-14T13:08:00.362Z,29.00
2018-06-14T13:10:29.214Z,28.90
2018-06-14T13:12:57.904Z,29.10
2018-06-14T13:15:26.311Z,29.00
2018-06-14T13:17:54.741Z,28.80
2018-06-14T13:20:23.195Z,28.70
2018-06-14T13:22:51.610Z,28.90
2018-06-14T13:25:20.075Z,29.00
2018-06-14T13:27:48.484Z,29.00
2018-06-14T13:30:16.995Z,28.80
2018-06-14T13:32:45.418Z,28.70
2018-06-14T13:35:13.898Z,28.40
2018-06-14T13:37:42.334Z,28.50
2018-06-14T13:40:10.756Z,28.70
2018-06-14T13:42:39.205Z,28.90
2018-06-14T13:45:07.694Z,29.10
2018-06-14T13:47:36.219Z,29.20
2018-06-14T13:50:04.707Z,29.40
2018-06-14T13:52:33.376Z,29.60
2018-06-14T13:55:01.923Z,29.30
2018-06-14T13:57:30.343Z,29.20
2018-06-14T13:59:58.766Z,29.20
2018-06-14T14:02:27.229Z,29.40
2018-06-14T14:04:56.053Z,29.40
2018-06-14T14:07:26.609Z,29.40
2018-06-14T14:09:56.017Z,29.30
2018-06-14T14:14:53.824Z,29.20
2018-06-14T14:17:22.356Z,28.80
2018-06-14T14:19:51.197Z,28.80
2018-06-14T14:22:19.629Z,28.60
2018-06-14T14:24:48.209Z,28.40
2018-06-14T14:27:16.973Z,28.30
2018-06-14T14:29:45.389Z,28.00
2018-06-14T14:32:13.852Z,27.70
2018-06-14T14:34:42.447Z,27.50
2018-06-14T14:37:10.949Z,27.30
2018-06-14T14:39:39.332Z,27.00
2018-06-14T14:42:07.844Z,26.70
2018-06-14T14:44:36.373Z,26.40
2018-06-14T14:47:04.802Z,26.20
2018-06-14T14:49:33.216Z,26.10
2018-06-14T14:52:01.651Z,26.00
2018-06-14T14:54:30.429Z,25.90
2018-06-14T14:56:58.888Z,25.80
2018-06-14T14:59:27.306Z,25.70
2018-06-14T15:01:55.749Z,25.50
2018-06-14T15:04:24.176Z,25.40
2018-06-14T15:06:52.766Z,25.20
2018-06-14T15:09:21.183Z,25.10
2018-06-14T15:14:17.813Z,24.80
2018-06-14T15:16:46.201Z,24.60
2018-06-14T15:19:14.624Z,24.40
2018-06-14T15:21:43.032Z,24.30
2018-06-14T15:24:11.424Z,24.10
2018-06-14T15:29:08.092Z,23.80
2018-06-14T15:31:36.492Z,23.60
2018-06-14T15:34:05.076Z,23.40
2018-06-14T15:36:33.500Z,23.20
2018-06-14T15:39:01.913Z,22.90
2018-06-14T15:41:30.368Z,22.70
2018-06-14T15:43:58.818Z,22.50
2018-06-14T15:46:27.328Z,22.20
2018-06-14T15:48:55.804Z,22.10
2018-06-14T15:51:24.231Z,21.80
2018-06-14T15:53:52.630Z,21.60
2018-06-14T15:56:33.732Z,21.40
2018-06-14T15:59:03.925Z,21.10
2018-06-14T16:01:32.356Z,21.00
2018-06-14T16:04:01.025Z,20.90
2018-06-14T16:06:29.425Z,20.90
2018-06-14T16:08:58.047Z,20.80
2018-06-14T16:11:26.736Z,20.70
2018-06-14T16:13:55.193Z,20.70
2018-06-14T16:16:24.306Z,20.70
2018-06-14T16:18:52.869Z,20.70
2018-06-14T16:21:21.360Z,20.60
2018-06-14T16:23:49.835Z,20.60
2018-06-14T16:26:18.454Z,20.60
2018-06-14T16:28:47.102Z,20.60
2018-06-14T16:31:15.712Z,20.60
2018-06-14T16:33:44.168Z,20.60
2018-06-14T16:36:12.572Z,20.70
2018-06-14T16:38:41.003Z,20.70
2018-06-14T16:41:09.509Z,20.70
2018-06-14T16:43:38.355Z,20.70
2018-06-14T16:46:07.726Z,20.70
2018-06-14T16:48:36.121Z,20.70
2018-06-14T16:51:04.554Z,20.70
2018-06-14T16:53:33.864Z,20.70
2018-06-14T16:56:02.387Z,20.60
2018-06-14T16:58:30.828Z,20.50
2018-06-14T17:00:59.280Z,20.40
2018-06-14T17:03:27.689Z,20.30
2018-06-14T17:05:56.156Z,20.30
2018-06-14T17:08:24.572Z,20.20
2018-06-14T17:10:53.042Z,20.20
2018-06-14T17:18:18.053Z,19.90
2018-06-14T17:20:46.641Z,19.90
2018-06-14T17:23:15.033Z,19.80
2018-06-14T17:25:43.454Z,19.70
2018-06-14T17:28:11.921Z,19.60
2018-06-14T17:30:40.326Z,19.50
2018-06-14T17:33:08.883Z,19.40
2018-06-14T17:35:37.309Z,19.30
2018-06-14T17:38:05.764Z,19.30
2018-06-14T17:40:34.236Z,19.20
2018-06-14T17:43:02.741Z,19.20
2018-06-14T17:45:31.981Z,19.20
2018-06-14T17:48:00.416Z,19.20
2018-06-14T17:50:28.821Z,19.20
2018-06-14T17:52:57.479Z,19.20
2018-06-14T17:55:25.957Z,19.20
2018-06-14T17:57:54.431Z,19.20
2018-06-14T18:00:22.968Z,19.20
2018-06-14T18:02:52.402Z,19.20
2018-06-14T18:05:22.148Z,19.20
2018-06-14T18:07:51.759Z,19.10
2018-06-14T18:10:21.264Z,19.10
2018-06-14T18:12:50.092Z,19.00
2018-06-14T18:15:19.701Z,19.00
2018-06-14T18:17:49.371Z,19.00
2018-06-14T18:20:17.902Z,19.00
2018-06-14T18:22:47.268Z,19.00
2018-06-14T18:25:15.815Z,19.00
2018-06-14T18:27:44.329Z,19.00
2018-06-14T18:30:12.870Z,19.00
2018-06-14T18:32:41.588Z,19.00
2018-06-14T18:35:10.006Z,19.00
2018-06-14T18:37:38.472Z,18.90
2018-06-14T18:40:06.977Z,18.90
2018-06-14T18:42:35.887Z,18.90
2018-06-14T18:45:04.448Z,18.90
2018-06-14T18:47:32.950Z,18.90
2018-06-14T18:50:01.439Z,19.00
2018-06-14T18:52:29.931Z,19.00
2018-06-14T18:54:58.833Z,19.10
2018-06-14T18:57:27.350Z,19.20
2018-06-14T18:59:55.800Z,19.30
2018-06-14T19:02:24.506Z,19.20
2018-06-14T19:04:52.937Z,19.20
2018-06-14T19:09:49.778Z,19.20
2018-06-14T19:12:18.366Z,19.20
2018-06-14T19:14:46.814Z,19.20
2018-06-14T19:17:15.295Z,19.20
2018-06-14T19:19:43.728Z,19.10
2018-06-14T19:22:12.214Z,19.00
2018-06-14T19:24:40.760Z,19.00
2018-06-14T19:27:09.232Z,18.90
2018-06-14T19:29:37.703Z,18.80
2018-06-14T19:32:06.371Z,18.80
2018-06-14T19:34:34.877Z,18.80
2018-06-14T19:37:03.370Z,18.70
2018-06-14T19:39:32.486Z,18.70
2018-06-14T19:42:00.997Z,18.70
2018-06-14T19:44:29.465Z,18.70
2018-06-14T19:46:57.870Z,18.60
2018-06-14T19:49:26.868Z,18.60
2018-06-14T19:51:56.588Z,18.70
2018-06-14T19:54:26.830Z,18.60
2018-06-14T19:56:55.305Z,18.60
2018-06-14T19:59:23.743Z,18.60
2018-06-14T20:01:52.361Z,18.60
2018-06-14T20:04:21.144Z,18.50
2018-06-14T20:06:49.659Z,18.40
2018-06-14T20:09:18.368Z,18.40
2018-06-14T20:11:46.826Z,18.40
2018-06-14T20:14:16.048Z,18.40
2018-06-14T20:16:44.678Z,18.30
2018-06-14T20:19:13.130Z,18.30
2018-06-14T20:21:41.585Z,18.30
2018-06-14T20:24:10.081Z,18.30
2018-06-14T20:26:38.571Z,18.30
2018-06-14T20:29:07.014Z,18.20
2018-06-14T20:31:35.666Z,18.20
2018-06-14T20:34:04.290Z,18.20
2018-06-14T20:36:32.787Z,18.20
2018-06-14T20:39:01.415Z,18.20
2018-06-14T20:41:30.166Z,18.20
2018-06-14T20:43:58.837Z,18.10
2018-06-14T20:46:27.338Z,18.10
2018-06-14T20:48:55.893Z,18.10
2018-06-14T20:51:25.016Z,18.10
2018-06-14T20:53:53.719Z,18.20
2018-06-14T20:56:22.209Z,18.20
2018-06-14T21:01:18.787Z,18.20
2018-06-14T21:03:47.279Z,18.20
2018-06-14T21:06:15.735Z,18.20
2018-06-14T21:08:45.214Z,18.30
2018-06-14T21:11:13.672Z,18.30
2018-06-14T21:13:42.278Z,18.30
2018-06-14T21:16:10.974Z,18.30
2018-06-14T21:18:39.459Z,18.30
2018-06-14T21:21:07.993Z,18.40
2018-06-14T21:23:36.495Z,18.40
2018-06-14T21:28:33.336Z,18.40
2018-06-14T21:31:01.773Z,18.40
2018-06-14T21:33:30.238Z,18.50
2018-06-14T21:35:58.678Z,18.50
2018-06-14T21:38:28.122Z,18.50
2018-06-14T21:40:56.612Z,18.50
2018-06-14T21:43:25.060Z,18.50
2018-06-14T21:45:53.505Z,18.50
2018-06-14T21:48:22.199Z,18.40
2018-06-14T21:50:50.600Z,18.40
2018-06-14T21:53:19.018Z,18.30
2018-06-14T21:55:47.453Z,18.30
2018-06-14T21:58:15.968Z,18.30
2018-06-14T22:00:44.406Z,18.20
2018-06-14T22:03:18.257Z,18.20
2018-06-14T22:05:46.707Z,18.20
2018-06-14T22:08:15.186Z,18.20
2018-06-14T22:10:43.597Z,18.20
2018-06-14T22:13:12.133Z,18.20
2018-06-14T22:15:40.574Z,18.10
2018-06-14T22:18:09.054Z,18.10
2018-06-14T22:20:37.509Z,18.10
2018-06-14T22:23:05.988Z,18.20
2018-06-14T22:25:34.489Z,18.20
2018-06-14T22:28:02.967Z,18.20
2018-06-14T22:30:31.417Z,18.20
2018-06-14T22:33:11.047Z,18.20
2018-06-14T22:35:39.609Z,18.20
2018-06-14T22:38:08.064Z,18.20
2018-06-14T22:40:36.540Z,18.10
2018-06-14T22:43:05.008Z,18.10
2018-06-14T22:45:33.430Z,18.10
2018-06-14T22:48:01.856Z,18.10
2018-06-14T22:50:41.645Z,18.10
2018-06-14T22:53:10.898Z,18.10
2018-06-14T22:55:39.518Z,18.10
2018-06-14T23:01:41.364Z,18.10
2018-06-14T23:04:11.078Z,18.10
2018-06-14T23:06:39.508Z,18.10
2018-06-14T23:10:25.566Z,18.00
2018-06-14T23:12:54.736Z,18.00
2018-06-14T23:15:23.748Z,18.00
2018-06-14T23:17:52.644Z,18.00
2018-06-14T23:20:22.632Z,18.00
2018-06-14T23:22:52.091Z,18.00
2018-06-14T23:25:21.453Z,18.00
2018-06-14T23:27:50.025Z,18.10
2018-06-14T23:30:18.748Z,18.10
2018-06-14T23:32:47.421Z,18.20
2018-06-14T23:35:16.388Z,18.20
2018-06-14T23:37:44.846Z,18.20
2018-06-14T23:40:13.299Z,18.30
2018-06-14T23:42:41.810Z,18.30
2018-06-14T23:45:10.291Z,18.30
2018-06-14T23:47:39.026Z,18.30
2018-06-14T23:50:07.523Z,18.30
2018-06-14T23:52:35.932Z,18.30
2018-06-14T23:55:04.447Z,18.30
2018-06-14T23:57:32.896Z,18.30
